createdAt,value
2023-04-21T00:00:06.593Z,13.01
2023-04-21T00:00:17.586Z,13.02
2023-04-21T00:00:28.585Z,13.01
2023-04-21T00:00:39.571Z,13.02
2023-04-21T00:00:50.567Z,13.02
2023-04-21T00:01:01.573Z,13.01
2023-04-21T00:01:12.588Z,13.02
2023-04-21T00:01:23.578Z,13.00
2023-04-21T00:01:34.571Z,13.02
2023-04-21T00:01:45.566Z,13.02
2023-04-21T00:01:57.578Z,13.00
2023-04-21T00:02:08.645Z,13.01
2023-04-21T00:02:20.677Z,13.00
2023-04-21T00:02:34.643Z,13.01
2023-04-21T00:02:43.665Z,13.01
2023-04-21T00:02:54.722Z,13.01
2023-04-21T00:03:05.781Z,13.00
2023-04-21T00:03:16.828Z,13.02
2023-04-21T00:03:27.843Z,13.00
2023-04-21T00:03:39.724Z,13.01
2023-04-21T00:03:50.783Z,13.01
2023-04-21T00:04:02.668Z,13.01
2023-04-21T00:04:14.146Z,13.01
2023-04-21T00:04:25.817Z,13.01
2023-04-21T00:04:37.759Z,13.00
2023-04-21T00:04:49.684Z,13.01
2023-04-21T00:05:01.645Z,12.99
2023-04-21T00:05:12.777Z,13.01
2023-04-21T00:05:24.795Z,13.00
2023-04-21T00:05:36.810Z,13.02
2023-04-21T00:05:48.793Z,13.00
2023-04-21T00:06:00.580Z,13.01
2023-04-21T00:06:11.593Z,13.01
2023-04-21T00:06:23.036Z,13.01
2023-04-21T00:06:34.607Z,12.99
2023-04-21T00:06:45.606Z,12.99
2023-04-21T00:06:57.594Z,13.00
2023-04-21T00:07:08.590Z,13.00
2023-04-21T00:07:19.601Z,12.99
2023-04-21T00:07:30.610Z,13.01
2023-04-21T00:07:42.588Z,13.00
2023-04-21T00:07:53.588Z,13.01
2023-04-21T00:08:04.571Z,13.01
2023-04-21T00:08:15.576Z,13.00
2023-04-21T00:08:26.580Z,13.00
2023-04-21T00:08:37.581Z,13.01
2023-04-21T00:08:48.590Z,13.01
2023-04-21T00:08:59.581Z,13.00
2023-04-21T00:09:10.571Z,13.00
2023-04-21T00:09:21.778Z,13.00
2023-04-21T00:09:32.597Z,12.99
2023-04-21T00:09:43.586Z,12.99
2023-04-21T00:09:54.580Z,13.01
2023-04-21T00:10:05.598Z,13.00
2023-04-21T00:10:16.579Z,13.00
2023-04-21T00:10:27.582Z,12.99
2023-04-21T00:10:38.581Z,12.99
2023-04-21T00:10:49.571Z,12.99
2023-04-21T00:11:00.584Z,12.98
2023-04-21T00:11:11.567Z,12.99
2023-04-21T00:11:22.592Z,12.99
2023-04-21T00:11:33.597Z,12.99
2023-04-21T00:11:44.594Z,13.00
2023-04-21T00:11:55.610Z,12.99
2023-04-21T00:12:06.590Z,13.00
2023-04-21T00:12:17.589Z,13.00
2023-04-21T00:12:28.598Z,12.99
2023-04-21T00:12:39.609Z,13.00
2023-04-21T00:12:50.608Z,12.99
2023-04-21T00:13:01.591Z,12.99
2023-04-21T00:13:12.587Z,12.99
2023-04-21T00:13:23.572Z,12.98
2023-04-21T00:13:34.560Z,12.99
2023-04-21T00:13:45.556Z,12.98
2023-04-21T00:13:56.629Z,13.00
2023-04-21T00:14:08.595Z,13.01
2023-04-21T00:14:19.576Z,12.98
2023-04-21T00:14:30.583Z,13.00
2023-04-21T00:14:41.566Z,12.99
2023-04-21T00:14:52.565Z,12.98
2023-04-21T00:15:03.588Z,13.00
2023-04-21T00:15:14.588Z,12.99
2023-04-21T00:15:25.591Z,12.99
2023-04-21T00:15:36.597Z,12.98
2023-04-21T00:15:48.589Z,12.97
2023-04-21T00:16:00.646Z,12.98
2023-04-21T00:16:11.652Z,12.98
2023-04-21T00:16:22.623Z,12.97
2023-04-21T00:16:34.674Z,12.97
2023-04-21T00:16:46.618Z,12.97
2023-04-21T00:16:58.584Z,12.97
2023-04-21T00:17:09.573Z,12.98
2023-04-21T00:17:20.548Z,12.97
2023-04-21T00:17:31.639Z,12.98
2023-04-21T00:17:42.574Z,12.97
2023-04-21T00:17:53.680Z,12.97
2023-04-21T00:18:04.603Z,12.98
2023-04-21T00:18:15.649Z,12.97
2023-04-21T00:18:27.624Z,12.96
2023-04-21T00:18:39.590Z,12.97
2023-04-21T00:18:50.565Z,12.97
2023-04-21T00:19:01.560Z,12.96
2023-04-21T00:19:12.560Z,12.97
2023-04-21T00:19:23.636Z,12.98
2023-04-21T00:19:35.630Z,12.96
2023-04-21T00:19:47.580Z,12.98
2023-04-21T00:19:58.582Z,12.98
2023-04-21T00:20:09.598Z,12.97
2023-04-21T00:20:20.601Z,12.98
2023-04-21T00:20:31.619Z,12.97
2023-04-21T00:20:43.579Z,12.97
2023-04-21T00:20:54.581Z,12.98
2023-04-21T00:21:05.575Z,12.97
2023-04-21T00:21:16.567Z,12.98
2023-04-21T00:21:27.551Z,12.98
2023-04-21T00:21:38.561Z,12.97
2023-04-21T00:21:50.580Z,12.97
2023-04-21T00:22:01.573Z,12.96
2023-04-21T00:22:12.549Z,12.97
2023-04-21T00:22:23.555Z,12.97
2023-04-21T00:22:34.570Z,12.98
2023-04-21T00:22:45.571Z,12.96
2023-04-21T00:22:56.557Z,12.97
2023-04-21T00:23:07.546Z,12.97
2023-04-21T00:23:18.634Z,12.96
2023-04-21T00:23:30.596Z,12.98
2023-04-21T00:23:41.589Z,12.98
2023-04-21T00:23:52.587Z,12.96
2023-04-21T00:24:03.595Z,12.96
2023-04-21T00:24:15.589Z,12.96
2023-04-21T00:24:26.581Z,12.96
2023-04-21T00:24:38.587Z,12.97
2023-04-21T00:24:49.600Z,12.96
2023-04-21T00:25:00.597Z,12.97
2023-04-21T00:25:11.576Z,12.96
2023-04-21T00:25:22.580Z,12.97
2023-04-21T00:25:33.609Z,12.97
2023-04-21T00:25:44.548Z,12.96
2023-04-21T00:25:55.553Z,12.97
2023-04-21T00:26:06.649Z,12.96
2023-04-21T00:26:18.617Z,12.95
2023-04-21T00:26:30.613Z,12.95
2023-04-21T00:26:42.580Z,12.97
2023-04-21T00:26:53.556Z,12.98
2023-04-21T00:27:04.561Z,12.96
2023-04-21T00:27:15.571Z,12.97
2023-04-21T00:27:26.563Z,12.95
2023-04-21T00:27:37.562Z,12.96
2023-04-21T00:27:48.556Z,12.95
2023-04-21T00:27:59.558Z,12.96
2023-04-21T00:28:10.598Z,12.96
2023-04-21T00:28:21.585Z,12.95
2023-04-21T00:28:32.581Z,12.95
2023-04-21T00:28:43.570Z,12.95
2023-04-21T00:28:54.551Z,12.96
2023-04-21T00:29:05.566Z,12.96
2023-04-21T00:29:16.836Z,12.96
2023-04-21T00:29:27.594Z,12.94
2023-04-21T00:29:38.582Z,12.95
2023-04-21T00:29:49.578Z,12.95
2023-04-21T00:30:00.577Z,12.95
2023-04-21T00:30:11.576Z,12.95
2023-04-21T00:30:22.580Z,12.94
2023-04-21T00:30:33.577Z,12.96
2023-04-21T00:30:44.570Z,12.94
2023-04-21T00:30:55.573Z,12.96
2023-04-21T00:31:06.642Z,12.96
2023-04-21T00:31:17.617Z,12.95
2023-04-21T00:31:29.672Z,12.95
2023-04-21T00:31:40.620Z,12.94
2023-04-21T00:31:52.717Z,12.95
2023-04-21T00:32:03.581Z,12.95
2023-04-21T00:32:14.571Z,12.94
2023-04-21T00:32:25.577Z,12.96
2023-04-21T00:32:36.593Z,12.95
2023-04-21T00:32:47.711Z,12.97
2023-04-21T00:32:59.664Z,12.96
2023-04-21T00:33:10.591Z,12.96
2023-04-21T00:33:21.586Z,12.95
2023-04-21T00:33:32.570Z,12.95
2023-04-21T00:33:43.568Z,12.95
2023-04-21T00:33:54.554Z,12.96
2023-04-21T00:34:05.559Z,12.96
2023-04-21T00:34:16.550Z,12.96
2023-04-21T00:34:27.564Z,12.95
2023-04-21T00:34:38.586Z,12.95
2023-04-21T00:34:49.580Z,12.96
2023-04-21T00:35:00.588Z,12.95
2023-04-21T00:35:11.584Z,12.96
2023-04-21T00:35:22.579Z,12.96
2023-04-21T00:35:33.574Z,12.96
2023-04-21T00:35:44.576Z,12.96
2023-04-21T00:35:55.577Z,12.97
2023-04-21T00:36:06.564Z,12.96
2023-04-21T00:36:17.564Z,12.95
2023-04-21T00:36:28.695Z,12.94
2023-04-21T00:36:39.630Z,12.95
2023-04-21T00:36:51.623Z,12.95
2023-04-21T00:37:03.605Z,12.95
2023-04-21T00:37:14.584Z,12.95
2023-04-21T00:37:25.586Z,12.96
2023-04-21T00:37:36.563Z,12.95
2023-04-21T00:37:47.565Z,12.95
2023-04-21T00:37:58.568Z,12.94
2023-04-21T00:38:09.554Z,12.94
2023-04-21T00:38:20.544Z,12.93
2023-04-21T00:38:31.594Z,12.94
2023-04-21T00:38:43.598Z,12.95
2023-04-21T00:38:54.594Z,12.94
2023-04-21T00:39:05.605Z,12.95
2023-04-21T00:39:16.819Z,12.94
2023-04-21T00:39:28.594Z,12.95
2023-04-21T00:39:39.581Z,12.95
2023-04-21T00:39:50.579Z,12.93
2023-04-21T00:40:01.586Z,12.95
2023-04-21T00:40:12.569Z,12.93
2023-04-21T00:40:23.569Z,12.94
2023-04-21T00:40:34.572Z,12.94
2023-04-21T00:40:45.568Z,12.94
2023-04-21T00:40:56.564Z,12.94
2023-04-21T00:41:07.558Z,12.94
2023-04-21T00:41:18.644Z,12.95
2023-04-21T00:41:30.607Z,12.95
2023-04-21T00:41:41.602Z,12.94
2023-04-21T00:41:52.594Z,12.96
2023-04-21T00:42:03.605Z,12.95
2023-04-21T00:42:15.579Z,12.95
2023-04-21T00:42:26.567Z,12.95
2023-04-21T00:42:37.572Z,12.96
2023-04-21T00:42:48.567Z,12.95
2023-04-21T00:42:59.596Z,12.95
2023-04-21T00:43:10.598Z,12.94
2023-04-21T00:43:21.611Z,12.94
2023-04-21T00:43:32.601Z,12.94
2023-04-21T00:43:43.602Z,12.95
2023-04-21T00:43:54.594Z,12.95
2023-04-21T00:44:05.605Z,12.94
2023-04-21T00:44:16.608Z,12.95
2023-04-21T00:44:27.611Z,12.94
2023-04-21T00:44:38.603Z,12.94
2023-04-21T00:44:50.585Z,12.94
2023-04-21T00:45:01.578Z,12.95
2023-04-21T00:45:12.568Z,12.95
2023-04-21T00:45:23.592Z,12.94
2023-04-21T00:45:34.580Z,12.93
2023-04-21T00:45:45.610Z,12.92
2023-04-21T00:45:57.598Z,12.93
2023-04-21T00:46:08.587Z,12.94
2023-04-21T00:46:19.610Z,12.93
2023-04-21T00:46:31.647Z,12.93
2023-04-21T00:46:42.583Z,12.93
2023-04-21T00:46:54.664Z,12.94
2023-04-21T00:47:05.829Z,12.93
2023-04-21T00:47:17.620Z,12.92
2023-04-21T00:47:29.593Z,12.94
2023-04-21T00:47:41.647Z,12.93
2023-04-21T00:47:52.681Z,12.94
2023-04-21T00:48:03.608Z,12.93
2023-04-21T00:48:14.570Z,12.94
2023-04-21T00:48:25.581Z,12.94
2023-04-21T00:48:36.606Z,12.94
2023-04-21T00:48:47.604Z,12.94
2023-04-21T00:48:59.578Z,12.93
2023-04-21T00:49:10.574Z,12.94
2023-04-21T00:49:21.583Z,12.93
2023-04-21T00:49:32.585Z,12.94
2023-04-21T00:49:43.579Z,12.92
2023-04-21T00:49:55.577Z,12.93
2023-04-21T00:50:07.106Z,12.93
2023-04-21T00:50:17.569Z,12.94
2023-04-21T00:50:28.595Z,12.94
2023-04-21T00:50:39.591Z,12.93
2023-04-21T00:50:50.582Z,12.94
2023-04-21T00:51:01.580Z,12.92
2023-04-21T00:51:12.569Z,12.94
2023-04-21T00:51:23.573Z,12.93
2023-04-21T00:51:34.588Z,12.93
2023-04-21T00:51:45.593Z,12.94
2023-04-21T00:51:56.597Z,12.95
2023-04-21T00:52:07.600Z,12.93
2023-04-21T00:52:19.592Z,12.94
2023-04-21T00:52:30.579Z,12.93
2023-04-21T00:52:41.563Z,12.93
2023-04-21T00:52:52.581Z,12.93
2023-04-21T00:53:03.579Z,12.93
2023-04-21T00:53:14.584Z,12.92
2023-04-21T00:53:25.589Z,12.93
2023-04-21T00:53:36.591Z,12.91
2023-04-21T00:53:47.573Z,12.92
2023-04-21T00:53:58.574Z,12.92
2023-04-21T00:54:09.563Z,12.92
2023-04-21T00:54:20.564Z,12.92
2023-04-21T00:54:31.556Z,12.92
2023-04-21T00:54:42.569Z,12.93
2023-04-21T00:54:53.561Z,12.91
2023-04-21T00:55:04.600Z,12.92
2023-04-21T00:55:15.593Z,12.91
2023-04-21T00:55:26.577Z,12.93
2023-04-21T00:55:37.583Z,12.94
2023-04-21T00:55:48.591Z,12.93
2023-04-21T00:55:59.600Z,12.93
2023-04-21T00:56:10.606Z,12.93
2023-04-21T00:56:22.582Z,12.93
2023-04-21T00:56:33.574Z,12.93
2023-04-21T00:56:44.588Z,12.93
2023-04-21T00:56:55.580Z,12.94
2023-04-21T00:57:06.564Z,12.94
2023-04-21T00:57:17.614Z,12.93
2023-04-21T00:57:29.576Z,12.93
2023-04-21T00:57:40.578Z,12.92
2023-04-21T00:57:51.601Z,12.94
2023-04-21T00:58:02.601Z,12.91
2023-04-21T00:58:13.598Z,12.93
2023-04-21T00:58:24.596Z,12.94
2023-04-21T00:58:35.594Z,12.92
2023-04-21T00:58:46.582Z,12.93
2023-04-21T00:58:57.571Z,12.93
2023-04-21T00:59:08.564Z,12.93
2023-04-21T00:59:19.655Z,12.93
2023-04-21T00:59:30.549Z,12.93
2023-04-21T00:59:41.548Z,12.94
2023-04-21T00:59:52.576Z,12.94
2023-04-21T01:00:03.606Z,12.93
2023-04-21T01:00:14.609Z,12.93
2023-04-21T01:00:26.579Z,12.93
2023-04-21T01:00:37.650Z,12.93
2023-04-21T01:00:48.598Z,12.94
2023-04-21T01:00:59.642Z,12.94
2023-04-21T01:01:10.636Z,12.95
2023-04-21T01:01:22.769Z,12.94
2023-04-21T01:01:34.579Z,12.94
2023-04-21T01:01:45.578Z,12.94
2023-04-21T01:01:56.671Z,12.94
2023-04-21T01:02:08.656Z,12.94
2023-04-21T01:02:20.795Z,12.94
2023-04-21T01:02:31.691Z,12.93
2023-04-21T01:02:43.690Z,12.95
2023-04-21T01:02:54.687Z,12.95
2023-04-21T01:03:06.951Z,12.95
2023-04-21T01:03:18.706Z,12.95
2023-04-21T01:03:29.830Z,12.94
2023-04-21T01:03:40.776Z,12.94
2023-04-21T01:03:51.693Z,12.94
2023-04-21T01:04:03.787Z,12.94
2023-04-21T01:04:15.662Z,12.94
2023-04-21T01:04:26.579Z,12.94
2023-04-21T01:04:37.584Z,12.94
2023-04-21T01:04:48.599Z,12.94
2023-04-21T01:04:59.599Z,12.94
2023-04-21T01:05:10.597Z,12.95
2023-04-21T01:05:21.606Z,12.94
2023-04-21T01:05:32.610Z,12.93
2023-04-21T01:05:44.582Z,12.94
2023-04-21T01:05:55.576Z,12.94
2023-04-21T01:06:06.564Z,12.94
2023-04-21T01:06:17.568Z,12.94
2023-04-21T01:06:28.569Z,12.93
2023-04-21T01:06:39.553Z,12.94
2023-04-21T01:06:50.585Z,12.94
2023-04-21T01:07:01.568Z,12.94
2023-04-21T01:07:12.587Z,12.94
2023-04-21T01:07:23.618Z,12.93
2023-04-21T01:07:35.581Z,12.93
2023-04-21T01:07:46.573Z,12.93
2023-04-21T01:07:57.568Z,12.94
2023-04-21T01:08:08.575Z,12.94
2023-04-21T01:08:19.560Z,12.92
2023-04-21T01:08:30.552Z,12.93
2023-04-21T01:08:41.549Z,12.94
2023-04-21T01:08:52.647Z,12.93
2023-04-21T01:09:04.628Z,12.93
2023-04-21T01:09:16.736Z,12.94
2023-04-21T01:09:28.591Z,12.93
2023-04-21T01:09:39.611Z,12.94
2023-04-21T01:09:50.606Z,12.92
2023-04-21T01:10:01.599Z,12.93
2023-04-21T01:10:12.602Z,12.92
2023-04-21T01:10:23.611Z,12.93
2023-04-21T01:10:34.589Z,12.93
2023-04-21T01:10:45.596Z,12.91
2023-04-21T01:10:56.614Z,12.92
2023-04-21T01:11:07.608Z,12.92
2023-04-21T01:11:19.572Z,12.93
2023-04-21T01:11:30.574Z,12.92
2023-04-21T01:11:41.573Z,12.92
2023-04-21T01:11:52.567Z,12.91
2023-04-21T01:12:03.578Z,12.91
2023-04-21T01:12:14.580Z,12.92
2023-04-21T01:12:25.562Z,12.91
2023-04-21T01:12:36.556Z,12.92
2023-04-21T01:12:47.554Z,12.92
2023-04-21T01:12:58.564Z,12.91
2023-04-21T01:13:09.558Z,12.92
2023-04-21T01:13:20.562Z,12.93
2023-04-21T01:13:31.557Z,12.91
2023-04-21T01:13:42.546Z,12.91
2023-04-21T01:13:53.557Z,12.92
2023-04-21T01:14:04.640Z,12.92
2023-04-21T01:14:16.601Z,12.91
2023-04-21T01:14:27.588Z,12.91
2023-04-21T01:14:38.604Z,12.91
2023-04-21T01:14:49.605Z,12.93
2023-04-21T01:15:00.590Z,12.90
2023-04-21T01:15:11.576Z,12.91
2023-04-21T01:15:22.591Z,12.91
2023-04-21T01:15:33.593Z,12.91
2023-04-21T01:15:44.590Z,12.92
2023-04-21T01:15:55.594Z,12.91
2023-04-21T01:16:06.582Z,12.92
2023-04-21T01:16:18.696Z,12.92
2023-04-21T01:16:30.629Z,12.90
2023-04-21T01:16:42.662Z,12.91
2023-04-21T01:16:53.653Z,12.90
2023-04-21T01:17:04.629Z,12.91
2023-04-21T01:17:16.610Z,12.89
2023-04-21T01:17:27.614Z,12.91
2023-04-21T01:17:39.608Z,12.90
2023-04-21T01:17:51.650Z,12.91
2023-04-21T01:18:02.645Z,12.90
2023-04-21T01:18:13.630Z,12.90
2023-04-21T01:18:24.633Z,12.89
2023-04-21T01:18:36.601Z,12.90
2023-04-21T01:18:47.597Z,12.90
2023-04-21T01:18:58.603Z,12.88
2023-04-21T01:19:10.582Z,12.90
2023-04-21T01:19:21.572Z,12.91
2023-04-21T01:19:32.575Z,12.91
2023-04-21T01:19:43.601Z,12.90
2023-04-21T01:19:54.579Z,12.91
2023-04-21T01:20:05.558Z,12.90
2023-04-21T01:20:16.560Z,12.90
2023-04-21T01:20:27.572Z,12.89
2023-04-21T01:20:38.572Z,12.90
2023-04-21T01:20:49.561Z,12.90
2023-04-21T01:21:00.563Z,12.91
2023-04-21T01:21:11.655Z,12.90
2023-04-21T01:21:23.637Z,12.89
2023-04-21T01:21:34.580Z,12.91
2023-04-21T01:21:45.579Z,12.90
2023-04-21T01:21:56.589Z,12.91
2023-04-21T01:22:07.598Z,12.89
2023-04-21T01:22:18.602Z,12.89
2023-04-21T01:22:29.587Z,12.90
2023-04-21T01:22:40.587Z,12.89
2023-04-21T01:22:51.602Z,12.91
2023-04-21T01:23:04.116Z,12.90
2023-04-21T01:23:14.578Z,12.90
2023-04-21T01:23:25.581Z,12.89
2023-04-21T01:23:36.596Z,12.90
2023-04-21T01:23:47.595Z,12.89
2023-04-21T01:23:58.608Z,12.90
2023-04-21T01:24:09.585Z,12.90
2023-04-21T01:24:20.579Z,12.89
2023-04-21T01:24:31.573Z,12.91
2023-04-21T01:24:42.573Z,12.91
2023-04-21T01:24:53.567Z,12.90
2023-04-21T01:25:04.566Z,12.89
2023-04-21T01:25:15.560Z,12.89
2023-04-21T01:25:26.573Z,12.90
2023-04-21T01:25:37.564Z,12.90
2023-04-21T01:25:48.561Z,12.89
2023-04-21T01:25:59.566Z,12.89
2023-04-21T01:26:10.558Z,12.90
2023-04-21T01:26:21.592Z,12.90
2023-04-21T01:26:33.597Z,12.89
2023-04-21T01:26:44.591Z,12.89
2023-04-21T01:26:55.585Z,12.90
2023-04-21T01:27:06.598Z,12.90
2023-04-21T01:27:17.599Z,12.90
2023-04-21T01:27:28.607Z,12.89
2023-04-21T01:27:40.593Z,12.89
2023-04-21T01:27:51.594Z,12.89
2023-04-21T01:28:03.583Z,12.90
2023-04-21T01:28:15.582Z,12.90
2023-04-21T01:28:26.590Z,12.90
2023-04-21T01:28:37.601Z,12.89
2023-04-21T01:28:48.611Z,12.89
2023-04-21T01:28:59.607Z,12.89
2023-04-21T01:29:10.601Z,12.90
2023-04-21T01:29:21.603Z,12.89
2023-04-21T01:29:32.596Z,12.90
2023-04-21T01:29:43.607Z,12.89
2023-04-21T01:29:54.623Z,12.89
2023-04-21T01:30:06.587Z,12.88
2023-04-21T01:30:17.588Z,12.88
2023-04-21T01:30:28.625Z,12.88
2023-04-21T01:30:40.595Z,12.89
2023-04-21T01:30:51.585Z,12.88
2023-04-21T01:31:02.630Z,12.88
2023-04-21T01:31:14.580Z,12.88
2023-04-21T01:31:25.635Z,12.88
2023-04-21T01:31:36.706Z,12.88
2023-04-21T01:31:48.618Z,12.89
2023-04-21T01:32:00.680Z,12.89
2023-04-21T01:32:11.609Z,12.88
2023-04-21T01:32:23.691Z,12.88
2023-04-21T01:32:35.683Z,12.89
2023-04-21T01:32:46.655Z,12.87
2023-04-21T01:32:57.640Z,12.88
2023-04-21T01:33:08.629Z,12.88
2023-04-21T01:33:19.664Z,12.88
2023-04-21T01:33:30.579Z,12.87
2023-04-21T01:33:41.582Z,12.88
2023-04-21T01:33:52.581Z,12.88
2023-04-21T01:34:03.577Z,12.88
2023-04-21T01:34:14.572Z,12.89
2023-04-21T01:34:25.580Z,12.88
2023-04-21T01:34:36.599Z,12.89
2023-04-21T01:34:47.584Z,12.88
2023-04-21T01:34:58.586Z,12.88
2023-04-21T01:35:09.569Z,12.88
2023-04-21T01:35:20.602Z,12.87
2023-04-21T01:35:31.600Z,12.87
2023-04-21T01:35:42.585Z,12.88
2023-04-21T01:35:53.595Z,12.88
2023-04-21T01:36:04.586Z,12.88
2023-04-21T01:36:15.568Z,12.88
2023-04-21T01:36:26.577Z,12.88
2023-04-21T01:36:37.562Z,12.89
2023-04-21T01:36:48.645Z,12.88
2023-04-21T01:37:00.600Z,12.88
2023-04-21T01:37:11.597Z,12.88
2023-04-21T01:37:22.586Z,12.87
2023-04-21T01:37:33.581Z,12.88
2023-04-21T01:37:44.580Z,12.87
2023-04-21T01:37:55.584Z,12.87
2023-04-21T01:38:06.602Z,12.87
2023-04-21T01:38:19.530Z,12.87
2023-04-21T01:38:29.615Z,12.87
2023-04-21T01:38:40.612Z,12.87
2023-04-21T01:38:52.583Z,12.88
2023-04-21T01:39:03.569Z,12.87
2023-04-21T01:39:15.609Z,12.87
2023-04-21T01:39:26.595Z,12.87
2023-04-21T01:39:37.598Z,12.87
2023-04-21T01:39:49.579Z,12.87
2023-04-21T01:40:00.600Z,12.87
2023-04-21T01:40:11.590Z,12.88
2023-04-21T01:40:22.607Z,12.88
2023-04-21T01:40:33.608Z,12.87
2023-04-21T01:40:45.607Z,12.87
2023-04-21T01:40:56.595Z,12.88
2023-04-21T01:41:07.604Z,12.86
2023-04-21T01:41:18.594Z,12.87
2023-04-21T01:41:29.582Z,12.86
2023-04-21T01:41:41.614Z,12.87
2023-04-21T01:41:52.609Z,12.88
2023-04-21T01:42:03.616Z,12.87
2023-04-21T01:42:14.614Z,12.87
2023-04-21T01:42:25.610Z,12.87
2023-04-21T01:42:36.598Z,12.86
2023-04-21T01:42:48.585Z,12.86
2023-04-21T01:42:59.576Z,12.86
2023-04-21T01:43:10.576Z,12.86
2023-04-21T01:43:21.572Z,12.87
2023-04-21T01:43:32.563Z,12.86
2023-04-21T01:43:43.652Z,12.85
2023-04-21T01:43:55.601Z,12.85
2023-04-21T01:44:06.605Z,12.86
2023-04-21T01:44:18.579Z,12.86
2023-04-21T01:44:29.608Z,12.86
2023-04-21T01:44:40.598Z,12.86
2023-04-21T01:44:51.604Z,12.87
2023-04-21T01:45:03.584Z,12.87
2023-04-21T01:45:14.581Z,12.86
2023-04-21T01:45:25.606Z,12.86
2023-04-21T01:45:36.622Z,12.86
2023-04-21T01:45:47.654Z,12.85
2023-04-21T01:45:59.656Z,12.86
2023-04-21T01:46:11.691Z,12.84
2023-04-21T01:46:22.643Z,12.85
2023-04-21T01:46:33.592Z,12.85
2023-04-21T01:46:44.629Z,12.86
2023-04-21T01:46:56.589Z,12.85
2023-04-21T01:47:07.573Z,12.86
2023-04-21T01:47:18.643Z,12.85
2023-04-21T01:47:30.627Z,12.85
2023-04-21T01:47:42.609Z,12.86
2023-04-21T01:47:54.612Z,12.87
2023-04-21T01:48:05.631Z,12.87
2023-04-21T01:48:16.696Z,12.85
2023-04-21T01:48:28.553Z,12.85
2023-04-21T01:48:39.633Z,12.85
2023-04-21T01:48:51.580Z,12.84
2023-04-21T01:49:02.607Z,12.84
2023-04-21T01:49:14.598Z,12.86
2023-04-21T01:49:25.595Z,12.85
2023-04-21T01:49:36.580Z,12.85
2023-04-21T01:49:47.587Z,12.85
2023-04-21T01:49:58.568Z,12.84
2023-04-21T01:50:09.580Z,12.85
2023-04-21T01:50:20.610Z,12.85
2023-04-21T01:50:31.616Z,12.85
2023-04-21T01:50:42.606Z,12.84
2023-04-21T01:50:54.594Z,12.85
2023-04-21T01:51:05.600Z,12.84
2023-04-21T01:51:16.586Z,12.84
2023-04-21T01:51:27.585Z,12.85
2023-04-21T01:51:38.586Z,12.85
2023-04-21T01:51:49.584Z,12.85
2023-04-21T01:52:00.591Z,12.85
2023-04-21T01:52:11.574Z,12.87
2023-04-21T01:52:22.574Z,12.85
2023-04-21T01:52:33.555Z,12.86
2023-04-21T01:52:44.561Z,12.86
2023-04-21T01:52:55.555Z,12.84
2023-04-21T01:53:06.639Z,12.85
2023-04-21T01:53:18.597Z,12.86
2023-04-21T01:53:29.602Z,12.84
2023-04-21T01:53:40.591Z,12.85
2023-04-21T01:53:51.587Z,12.83
2023-04-21T01:54:02.592Z,12.85
2023-04-21T01:54:13.597Z,12.84
2023-04-21T01:54:24.584Z,12.83
2023-04-21T01:54:35.597Z,12.83
2023-04-21T01:54:46.581Z,12.84
2023-04-21T01:54:57.583Z,12.85
2023-04-21T01:55:08.568Z,12.84
2023-04-21T01:55:19.588Z,12.84
2023-04-21T01:55:30.579Z,12.84
2023-04-21T01:55:41.576Z,12.85
2023-04-21T01:55:52.577Z,12.85
2023-04-21T01:56:03.572Z,12.84
2023-04-21T01:56:14.582Z,12.85
2023-04-21T01:56:25.566Z,12.84
2023-04-21T01:56:36.622Z,12.83
2023-04-21T01:56:48.618Z,12.84
2023-04-21T01:56:59.635Z,12.84
2023-04-21T01:57:10.616Z,12.84
2023-04-21T01:57:22.596Z,12.83
2023-04-21T01:57:33.589Z,12.83
2023-04-21T01:57:44.570Z,12.83
2023-04-21T01:57:55.557Z,12.83
2023-04-21T01:58:06.566Z,12.84
2023-04-21T01:58:17.553Z,12.84
2023-04-21T01:58:28.646Z,12.83
2023-04-21T01:58:40.607Z,12.83
2023-04-21T01:58:51.602Z,12.83
2023-04-21T01:59:02.616Z,12.84
2023-04-21T01:59:13.612Z,12.82
2023-04-21T01:59:24.606Z,12.82
2023-04-21T01:59:35.613Z,12.82
2023-04-21T01:59:46.598Z,12.82
2023-04-21T01:59:57.581Z,12.82
2023-04-21T02:00:08.575Z,12.82
2023-04-21T02:00:19.566Z,12.81
2023-04-21T02:00:30.554Z,12.81
2023-04-21T02:00:41.649Z,12.83
2023-04-21T02:00:53.601Z,12.83
2023-04-21T02:01:04.658Z,12.82
2023-04-21T02:01:16.633Z,12.82
2023-04-21T02:01:27.584Z,12.82
2023-04-21T02:01:38.651Z,12.82
2023-04-21T02:01:49.755Z,12.82
2023-04-21T02:02:01.638Z,12.81
2023-04-21T02:02:13.740Z,12.81
2023-04-21T02:02:25.704Z,12.81
2023-04-21T02:02:37.957Z,12.82
2023-04-21T02:02:49.725Z,12.81
2023-04-21T02:03:00.817Z,12.82
2023-04-21T02:03:12.650Z,12.81
2023-04-21T02:03:24.677Z,12.81
2023-04-21T02:03:36.818Z,12.82
2023-04-21T02:03:48.817Z,12.81
2023-04-21T02:03:59.748Z,12.80
2023-04-21T02:04:10.645Z,12.80
2023-04-21T02:04:21.736Z,12.80
2023-04-21T02:04:33.726Z,12.80
2023-04-21T02:04:45.584Z,12.82
2023-04-21T02:04:56.588Z,12.82
2023-04-21T02:05:07.604Z,12.82
2023-04-21T02:05:18.610Z,12.81
2023-04-21T02:05:29.607Z,12.81
2023-04-21T02:05:40.603Z,12.81
2023-04-21T02:05:51.612Z,12.83
2023-04-21T02:06:03.588Z,12.81
2023-04-21T02:06:14.595Z,12.83
2023-04-21T02:06:25.596Z,12.82
2023-04-21T02:06:36.609Z,12.84
2023-04-21T02:06:47.613Z,12.82
2023-04-21T02:06:59.578Z,12.83
2023-04-21T02:07:10.574Z,12.82
2023-04-21T02:07:21.569Z,12.82
2023-04-21T02:07:32.597Z,12.82
2023-04-21T02:07:43.597Z,12.82
2023-04-21T02:07:54.597Z,12.82
2023-04-21T02:08:05.608Z,12.80
2023-04-21T02:08:17.609Z,12.80
2023-04-21T02:08:28.602Z,12.81
2023-04-21T02:08:39.582Z,12.80
2023-04-21T02:08:50.579Z,12.81
2023-04-21T02:09:01.572Z,12.79
2023-04-21T02:09:12.576Z,12.81
2023-04-21T02:09:23.582Z,12.80
2023-04-21T02:09:34.566Z,12.81
2023-04-21T02:09:45.644Z,12.81
2023-04-21T02:09:57.591Z,12.80
2023-04-21T02:10:08.570Z,12.81
2023-04-21T02:10:19.571Z,12.80
2023-04-21T02:10:30.559Z,12.81
2023-04-21T02:10:42.578Z,12.80
2023-04-21T02:10:53.562Z,12.80
2023-04-21T02:11:04.579Z,12.81
2023-04-21T02:11:15.573Z,12.81
2023-04-21T02:11:26.561Z,12.81
2023-04-21T02:11:37.560Z,12.80
2023-04-21T02:11:48.555Z,12.80
2023-04-21T02:11:59.559Z,12.80
2023-04-21T02:12:10.643Z,12.80
2023-04-21T02:12:22.603Z,12.79
2023-04-21T02:12:33.593Z,12.79
2023-04-21T02:12:44.590Z,12.79
2023-04-21T02:12:55.591Z,12.79
2023-04-21T02:13:06.605Z,12.81
2023-04-21T02:13:17.583Z,12.80
2023-04-21T02:13:28.578Z,12.81
2023-04-21T02:13:39.584Z,12.79
2023-04-21T02:13:50.581Z,12.79
2023-04-21T02:14:01.572Z,12.80
2023-04-21T02:14:12.576Z,12.80
2023-04-21T02:14:23.577Z,12.80
2023-04-21T02:14:34.566Z,12.79
2023-04-21T02:14:45.553Z,12.78
2023-04-21T02:14:56.642Z,12.80
2023-04-21T02:15:08.639Z,12.80
2023-04-21T02:15:20.585Z,12.79
2023-04-21T02:15:31.657Z,12.79
2023-04-21T02:15:42.675Z,12.80
2023-04-21T02:16:05.963Z,12.79
2023-04-21T02:16:13.556Z,12.80
2023-04-21T02:16:19.587Z,12.78
2023-04-21T02:16:29.670Z,12.79
2023-04-21T02:16:41.640Z,12.79
2023-04-21T02:16:53.673Z,12.78
2023-04-21T02:17:05.631Z,12.79
2023-04-21T02:17:17.591Z,12.78
2023-04-21T02:17:28.623Z,12.79
2023-04-21T02:17:40.640Z,12.78
2023-04-21T02:17:52.734Z,12.79
2023-04-21T02:18:04.654Z,12.78
2023-04-21T02:18:15.632Z,12.78
2023-04-21T02:18:26.638Z,12.79
2023-04-21T02:18:38.589Z,12.77
2023-04-21T02:18:49.605Z,12.77
2023-04-21T02:19:00.612Z,12.78
2023-04-21T02:19:11.589Z,12.78
2023-04-21T02:19:22.572Z,12.79
2023-04-21T02:19:33.583Z,12.77
2023-04-21T02:19:44.590Z,12.78
2023-04-21T02:19:56.576Z,12.79
2023-04-21T02:20:07.596Z,12.77
2023-04-21T02:20:18.586Z,12.78
2023-04-21T02:20:29.605Z,12.78
2023-04-21T02:20:40.597Z,12.79
2023-04-21T02:20:51.596Z,12.78
2023-04-21T02:21:02.589Z,12.79
2023-04-21T02:21:13.588Z,12.78
2023-04-21T02:21:24.596Z,12.78
2023-04-21T02:21:35.606Z,12.78
2023-04-21T02:21:47.614Z,12.77
2023-04-21T02:21:58.545Z,12.77
2023-04-21T02:22:09.631Z,12.77
2023-04-21T02:22:21.571Z,12.78
2023-04-21T02:22:32.559Z,12.78
2023-04-21T02:22:43.554Z,12.77
2023-04-21T02:22:55.169Z,12.77
2023-04-21T02:23:06.579Z,12.76
2023-04-21T02:23:17.572Z,12.77
2023-04-21T02:23:28.580Z,12.78
2023-04-21T02:23:39.561Z,12.78
2023-04-21T02:23:50.540Z,12.78
2023-04-21T02:24:01.623Z,12.79
2023-04-21T02:24:13.578Z,12.79